createdAt,value
2022-12-08T00:00:53.017Z,3.80
2022-12-08T00:01:53.129Z,3.30
2022-12-08T00:02:53.193Z,3.60
2022-12-08T00:03:52.973Z,3.50
2022-12-08T00:04:52.979Z,3.20
2022-12-08T00:05:52.972Z,3.90
2022-12-08T00:06:52.952Z,3.90
2022-12-08T00:07:53.015Z,3.30
2022-12-08T00:08:52.927Z,3.60
2022-12-08T00:09:52.925Z,3.80
2022-12-08T00:10:52.926Z,3.70
2022-12-08T00:11:52.899Z,3.80
2022-12-08T00:12:52.880Z,4.10
2022-12-08T00:13:52.882Z,3.50
2022-12-08T00:14:52.854Z,3.80
2022-12-08T00:15:52.859Z,4.10
2022-12-08T00:16:52.997Z,3.60
2022-12-08T00:17:52.830Z,3.50
2022-12-08T00:18:52.811Z,3.80
2022-12-08T00:19:52.807Z,3.90
2022-12-08T00:20:52.791Z,3.10
2022-12-08T00:21:52.799Z,3.60
2022-12-08T00:22:52.776Z,3.90
2022-12-08T00:23:52.773Z,3.20
2022-12-08T00:24:52.757Z,3.50
2022-12-08T00:25:52.747Z,3.60
2022-12-08T00:26:52.761Z,3.70
2022-12-08T00:27:52.714Z,3.50
2022-12-08T00:28:52.714Z,3.50
2022-12-08T00:29:52.707Z,3.60
2022-12-08T00:30:52.693Z,4.00
2022-12-08T00:31:52.815Z,3.90
2022-12-08T00:32:52.670Z,4.00
2022-12-08T00:33:52.651Z,3.50
2022-12-08T00:34:52.641Z,3.90
2022-12-08T00:35:52.618Z,3.30
2022-12-08T00:36:52.610Z,3.10
2022-12-08T00:37:57.548Z,3.20
2022-12-08T00:38:53.591Z,3.50
2022-12-08T00:39:52.587Z,2.90
2022-12-08T00:40:52.565Z,3.60
2022-12-08T00:41:52.557Z,3.40
2022-12-08T00:42:52.562Z,3.50
2022-12-08T00:43:52.531Z,3.20
2022-12-08T00:44:52.546Z,3.10
2022-12-08T00:45:52.573Z,3.20
2022-12-08T00:46:52.495Z,3.30
2022-12-08T00:47:52.514Z,2.50
2022-12-08T00:48:52.496Z,2.90
2022-12-08T00:49:52.461Z,2.90
2022-12-08T00:50:52.466Z,3.20
2022-12-08T00:51:52.436Z,4.10
2022-12-08T00:52:52.427Z,3.50
2022-12-08T00:53:52.442Z,3.20
2022-12-08T00:54:52.414Z,3.10
2022-12-08T00:55:52.416Z,2.70
2022-12-08T00:56:52.416Z,3.40
2022-12-08T00:57:52.390Z,3.60
2022-12-08T00:58:52.398Z,3.20
2022-12-08T00:59:52.371Z,3.00
2022-12-08T01:00:52.408Z,2.70
2022-12-08T01:01:52.355Z,3.10
2022-12-08T01:02:52.372Z,3.30
2022-12-08T01:03:52.398Z,2.60
2022-12-08T01:04:52.305Z,3.70
2022-12-08T01:05:52.293Z,3.40
2022-12-08T01:06:52.341Z,2.80
2022-12-08T01:07:52.325Z,3.10
2022-12-08T01:08:52.246Z,3.30
2022-12-08T01:09:52.240Z,3.00
2022-12-08T01:10:52.245Z,3.00
2022-12-08T01:11:52.234Z,3.60
2022-12-08T01:12:52.255Z,3.00
2022-12-08T01:13:52.196Z,2.90
2022-12-08T01:14:52.203Z,3.20
2022-12-08T01:15:52.170Z,2.80
2022-12-08T01:16:52.253Z,3.00
2022-12-08T01:17:52.472Z,3.10
2022-12-08T01:18:52.164Z,3.10
2022-12-08T01:19:52.144Z,3.00
2022-12-08T01:20:52.122Z,2.60
2022-12-08T01:21:52.115Z,3.10
2022-12-08T01:22:52.114Z,2.70
2022-12-08T01:23:52.094Z,2.90
2022-12-08T01:24:52.077Z,2.70
2022-12-08T01:25:52.092Z,2.90
2022-12-08T01:26:52.070Z,2.50
2022-12-08T01:27:52.054Z,2.80
2022-12-08T01:28:52.037Z,3.30
2022-12-08T01:29:52.037Z,2.90
2022-12-08T01:30:52.093Z,2.60
2022-12-08T01:31:52.098Z,2.40
2022-12-08T01:32:52.014Z,2.50
2022-12-08T01:33:52.005Z,1.90
2022-12-08T01:34:51.963Z,2.60
2022-12-08T01:35:51.977Z,2.50
2022-12-08T01:36:51.939Z,2.00
2022-12-08T01:37:51.959Z,2.30
2022-12-08T01:38:51.938Z,2.30
2022-12-08T01:39:51.932Z,2.30
2022-12-08T01:40:51.904Z,2.30
2022-12-08T01:41:51.904Z,2.60
2022-12-08T01:42:51.873Z,2.60
2022-12-08T01:43:51.875Z,2.80
2022-12-08T01:44:51.855Z,2.40
2022-12-08T01:45:51.879Z,3.30
2022-12-08T01:46:51.855Z,3.20
2022-12-08T01:47:51.855Z,3.40
2022-12-08T01:48:51.805Z,2.80
2022-12-08T01:49:51.818Z,2.40
2022-12-08T01:50:51.802Z,3.10
2022-12-08T01:51:51.801Z,2.30
2022-12-08T01:52:51.768Z,3.20
2022-12-08T01:53:51.747Z,3.10
2022-12-08T01:54:51.764Z,2.70
2022-12-08T01:55:51.728Z,2.70
2022-12-08T01:56:51.726Z,2.70
2022-12-08T01:57:51.711Z,2.70
2022-12-08T01:58:51.696Z,2.80
2022-12-08T01:59:51.682Z,3.10
2022-12-08T02:00:51.768Z,3.30
2022-12-08T02:01:51.808Z,3.00
2022-12-08T02:02:51.743Z,2.50
2022-12-08T02:03:51.636Z,2.60
2022-12-08T02:04:51.662Z,2.70
2022-12-08T02:05:51.614Z,2.50
2022-12-08T02:06:51.618Z,2.40
2022-12-08T02:07:51.648Z,2.40
2022-12-08T02:08:51.595Z,2.70
2022-12-08T02:09:51.567Z,2.70
2022-12-08T02:10:51.573Z,2.80
2022-12-08T02:11:51.546Z,2.20
2022-12-08T02:12:51.551Z,2.50
2022-12-08T02:13:51.527Z,2.30
2022-12-08T02:14:51.529Z,2.20
2022-12-08T02:15:51.564Z,2.20
2022-12-08T02:16:51.492Z,2.40
2022-12-08T02:17:51.494Z,2.20
2022-12-08T02:19:14.813Z,2.40
2022-12-08T02:19:52.485Z,1.90
2022-12-08T02:20:51.445Z,2.30
2022-12-08T02:21:51.440Z,2.20
2022-12-08T02:22:51.433Z,2.10
2022-12-08T02:23:51.433Z,2.10
2022-12-08T02:24:51.408Z,2.10
2022-12-08T02:25:51.400Z,2.30
2022-12-08T02:26:51.399Z,2.60
2022-12-08T02:27:51.384Z,2.40
2022-12-08T02:28:51.355Z,2.60
2022-12-08T02:29:51.346Z,2.50
2022-12-08T02:30:51.469Z,2.60
2022-12-08T02:31:51.340Z,2.40
2022-12-08T02:32:51.321Z,2.50
2022-12-08T02:33:51.319Z,2.00
2022-12-08T02:34:51.313Z,2.50
2022-12-08T02:35:51.283Z,2.30
2022-12-08T02:36:51.274Z,2.30
2022-12-08T02:37:51.253Z,2.80
2022-12-08T02:38:51.255Z,1.90
2022-12-08T02:39:51.233Z,2.00
2022-12-08T02:40:51.223Z,1.80
2022-12-08T02:41:51.232Z,1.60
2022-12-08T02:42:51.215Z,1.70
2022-12-08T02:43:51.208Z,1.60
2022-12-08T02:44:51.188Z,2.10
2022-12-08T02:45:51.229Z,2.20
2022-12-08T02:46:51.172Z,1.90
2022-12-08T02:47:51.222Z,2.30
2022-12-08T02:48:51.136Z,2.60
2022-12-08T02:49:51.119Z,2.30
2022-12-08T02:50:51.135Z,2.60
2022-12-08T02:51:51.104Z,2.00
2022-12-08T02:52:51.096Z,2.30
2022-12-08T02:53:51.078Z,2.30
2022-12-08T02:54:51.071Z,2.80
2022-12-08T02:55:51.050Z,3.00
2022-12-08T02:56:51.046Z,3.20
2022-12-08T02:57:51.041Z,3.00
2022-12-08T02:58:51.022Z,2.80
2022-12-08T02:59:51.021Z,3.60
2022-12-08T03:00:51.027Z,3.00
2022-12-08T03:01:51.122Z,3.10
2022-12-08T03:02:51.056Z,3.20
2022-12-08T03:03:50.965Z,3.40
2022-12-08T03:04:50.965Z,3.40
2022-12-08T03:05:50.959Z,3.10
2022-12-08T03:06:50.976Z,3.50
2022-12-08T03:07:50.970Z,2.80
2022-12-08T03:08:50.932Z,2.30
2022-12-08T03:09:50.896Z,2.30
2022-12-08T03:10:50.885Z,2.70
2022-12-08T03:11:50.901Z,2.80
2022-12-08T03:12:50.861Z,2.90
2022-12-08T03:13:50.848Z,2.60
2022-12-08T03:14:50.858Z,2.80
2022-12-08T03:15:50.921Z,2.90
2022-12-08T03:16:50.848Z,2.60
2022-12-08T03:17:50.823Z,2.70
2022-12-08T03:18:50.820Z,2.40
2022-12-08T03:19:50.785Z,2.40
2022-12-08T03:20:50.788Z,2.30
2022-12-08T03:21:50.774Z,2.40
2022-12-08T03:22:50.788Z,2.40
2022-12-08T03:23:50.755Z,2.20
2022-12-08T03:24:50.726Z,2.20
2022-12-08T03:25:50.736Z,1.70
2022-12-08T03:26:50.744Z,2.60
2022-12-08T03:27:50.704Z,2.70
2022-12-08T03:28:50.694Z,2.60
2022-12-08T03:29:50.688Z,2.40
2022-12-08T03:30:50.771Z,2.10
2022-12-08T03:31:50.669Z,2.40
2022-12-08T03:32:50.671Z,1.90
2022-12-08T03:33:50.647Z,2.90
2022-12-08T03:34:50.628Z,2.30
2022-12-08T03:35:50.622Z,2.30
2022-12-08T03:36:50.605Z,2.70
2022-12-08T03:37:50.608Z,2.20
2022-12-08T03:38:50.632Z,2.00
2022-12-08T03:39:50.579Z,2.70
2022-12-08T03:40:50.555Z,2.00
2022-12-08T03:41:50.542Z,2.40
2022-12-08T03:42:50.533Z,2.80
2022-12-08T03:43:50.517Z,2.40
2022-12-08T03:44:50.571Z,2.10
2022-12-08T03:45:50.497Z,2.20
2022-12-08T03:46:50.510Z,2.40
2022-12-08T03:47:50.487Z,2.00
2022-12-08T03:48:50.471Z,2.60
2022-12-08T03:49:50.467Z,2.30
2022-12-08T03:50:50.451Z,2.20
2022-12-08T03:51:50.454Z,2.70
2022-12-08T03:52:50.416Z,2.00
2022-12-08T03:53:50.436Z,1.90
2022-12-08T03:54:50.433Z,1.70
2022-12-08T03:55:50.399Z,2.00
2022-12-08T03:56:50.417Z,2.30
2022-12-08T03:57:50.371Z,2.20
2022-12-08T03:58:50.361Z,1.60
2022-12-08T03:59:50.352Z,2.20
2022-12-08T04:00:50.327Z,2.30
2022-12-08T04:01:50.366Z,2.40
2022-12-08T04:02:50.419Z,1.60
2022-12-08T04:03:50.293Z,2.60
2022-12-08T04:04:50.294Z,2.10
2022-12-08T04:05:50.281Z,2.00
2022-12-08T04:06:50.278Z,2.30
2022-12-08T04:07:50.264Z,2.10
2022-12-08T04:08:50.259Z,2.10
2022-12-08T04:09:50.236Z,2.20
2022-12-08T04:10:50.251Z,2.30
2022-12-08T04:11:50.202Z,2.40
2022-12-08T04:12:50.202Z,2.10
2022-12-08T04:13:50.198Z,2.20
2022-12-08T04:14:50.202Z,2.80
2022-12-08T04:15:50.196Z,2.10
2022-12-08T04:16:50.162Z,2.40
2022-12-08T04:17:50.152Z,2.30
2022-12-08T04:18:50.139Z,2.20
2022-12-08T04:19:50.129Z,2.00
2022-12-08T04:20:50.121Z,2.40
2022-12-08T04:21:50.107Z,2.20
2022-12-08T04:22:50.092Z,1.70
2022-12-08T04:23:50.082Z,2.30
2022-12-08T04:24:50.062Z,1.90
2022-12-08T04:25:50.057Z,2.00
2022-12-08T04:26:50.058Z,2.00
2022-12-08T04:27:50.048Z,2.00
2022-12-08T04:28:50.014Z,2.10
2022-12-08T04:29:50.010Z,2.30
2022-12-08T04:30:50.009Z,2.80
2022-12-08T04:31:50.102Z,2.40
2022-12-08T04:32:49.964Z,2.30
2022-12-08T04:33:49.980Z,2.00
2022-12-08T04:34:49.962Z,2.10
2022-12-08T04:35:49.943Z,2.50
2022-12-08T04:36:49.943Z,2.30
2022-12-08T04:37:49.921Z,2.10
2022-12-08T04:38:49.917Z,2.20
2022-12-08T04:39:49.894Z,2.00
2022-12-08T04:40:49.883Z,2.40
2022-12-08T04:41:49.879Z,2.80
2022-12-08T04:42:49.879Z,2.20
2022-12-08T04:43:49.872Z,2.00
2022-12-08T04:44:49.858Z,2.10
2022-12-08T04:45:49.826Z,2.10
2022-12-08T04:46:49.902Z,1.90
2022-12-08T04:47:49.825Z,2.40
2022-12-08T04:48:49.792Z,2.70
2022-12-08T04:49:49.805Z,2.60
2022-12-08T04:50:49.784Z,2.10
2022-12-08T04:51:49.760Z,2.10
2022-12-08T04:52:49.764Z,1.80
2022-12-08T04:53:49.736Z,2.20
2022-12-08T04:54:49.736Z,2.70
2022-12-08T04:55:49.731Z,1.90
2022-12-08T04:56:49.712Z,1.60
2022-12-08T04:57:49.688Z,1.70
2022-12-08T04:58:49.724Z,2.20
2022-12-08T04:59:49.664Z,2.40
2022-12-08T05:00:49.680Z,2.10
2022-12-08T05:01:49.773Z,2.30
2022-12-08T05:02:49.745Z,2.30
2022-12-08T05:03:49.637Z,1.60
2022-12-08T05:04:49.610Z,2.20
2022-12-08T05:05:49.620Z,2.30
2022-12-08T05:06:49.584Z,1.90
2022-12-08T05:07:49.645Z,1.90
2022-12-08T05:08:49.564Z,2.00
2022-12-08T05:09:49.558Z,2.10
2022-12-08T05:10:49.559Z,2.30
2022-12-08T05:11:49.566Z,2.10
2022-12-08T05:12:49.536Z,2.00
2022-12-08T05:13:49.515Z,1.60
2022-12-08T05:14:49.544Z,1.90
2022-12-08T05:15:49.561Z,1.90
2022-12-08T05:16:49.625Z,1.90
2022-12-08T05:17:49.493Z,1.90
2022-12-08T05:18:49.454Z,2.40
2022-12-08T05:19:49.463Z,2.10
2022-12-08T05:20:49.459Z,2.00
2022-12-08T05:21:49.428Z,2.30
2022-12-08T05:22:49.424Z,1.80
2022-12-08T05:23:49.408Z,1.40
2022-12-08T05:24:49.417Z,1.90
2022-12-08T05:25:49.377Z,1.60
2022-12-08T05:26:49.375Z,2.30
2022-12-08T05:27:49.366Z,2.20
2022-12-08T05:28:49.355Z,2.00
2022-12-08T05:29:49.327Z,2.00
2022-12-08T05:30:49.372Z,2.10
2022-12-08T05:31:49.437Z,2.10
2022-12-08T05:32:49.314Z,2.30
2022-12-08T05:33:49.316Z,2.60
2022-12-08T05:34:49.290Z,1.70
2022-12-08T05:35:49.282Z,2.50
2022-12-08T05:36:49.265Z,1.90
2022-12-08T05:37:49.252Z,1.80
2022-12-08T05:38:49.231Z,2.50
2022-12-08T05:39:49.232Z,2.00
2022-12-08T05:40:49.233Z,2.20
2022-12-08T05:41:49.196Z,2.10
2022-12-08T05:42:49.184Z,2.10
2022-12-08T05:43:49.178Z,2.10
2022-12-08T05:44:49.190Z,2.30
2022-12-08T05:45:49.269Z,2.00
2022-12-08T05:46:49.188Z,1.90
2022-12-08T05:47:49.140Z,2.40
2022-12-08T05:48:49.144Z,2.70
2022-12-08T05:49:49.132Z,2.10
2022-12-08T05:50:49.115Z,2.30
2022-12-08T05:51:49.096Z,2.70
2022-12-08T05:52:49.105Z,2.90
2022-12-08T05:53:49.071Z,2.90
2022-12-08T05:54:49.066Z,2.60
2022-12-08T05:55:49.066Z,2.50
2022-12-08T05:56:49.044Z,2.80
2022-12-08T05:57:49.019Z,2.50
2022-12-08T05:58:49.031Z,2.50
2022-12-08T05:59:49.007Z,2.50
2022-12-08T06:00:49.001Z,2.60
2022-12-08T06:01:49.087Z,2.70
2022-12-08T06:02:49.123Z,3.10
2022-12-08T06:03:48.966Z,2.50
2022-12-08T06:04:49.011Z,2.40
2022-12-08T06:05:48.964Z,2.60
2022-12-08T06:06:48.939Z,2.80
2022-12-08T06:07:48.980Z,2.70
2022-12-08T06:08:48.897Z,2.50
2022-12-08T06:09:48.882Z,3.00
2022-12-08T06:10:48.913Z,2.90
2022-12-08T06:11:48.884Z,2.50
2022-12-08T06:12:48.864Z,2.60
2022-12-08T06:13:48.851Z,2.70
2022-12-08T06:14:48.861Z,2.40
2022-12-08T06:15:48.854Z,2.40
2022-12-08T06:16:48.912Z,2.30
2022-12-08T06:17:48.813Z,2.20
2022-12-08T06:18:48.833Z,2.50
2022-12-08T06:19:48.818Z,2.80
2022-12-08T06:20:48.781Z,2.70
2022-12-08T06:21:48.760Z,2.60
2022-12-08T06:22:48.746Z,2.50
2022-12-08T06:23:48.726Z,2.50
2022-12-08T06:24:48.740Z,2.50
2022-12-08T06:25:56.513Z,2.60
2022-12-08T06:26:48.703Z,2.40
2022-12-08T06:27:48.684Z,2.40
2022-12-08T06:28:48.672Z,2.00
2022-12-08T06:29:48.676Z,2.20
2022-12-08T06:30:48.705Z,2.20
2022-12-08T06:31:48.780Z,2.50
2022-12-08T06:32:48.622Z,2.70
2022-12-08T06:33:48.622Z,2.70
2022-12-08T06:34:48.632Z,2.90
2022-12-08T06:35:48.616Z,2.50
2022-12-08T06:36:48.596Z,2.50
2022-12-08T06:37:48.580Z,2.70
2022-12-08T06:38:48.580Z,2.80
2022-12-08T06:39:48.577Z,2.90
2022-12-08T06:40:48.585Z,2.90
2022-12-08T06:41:48.541Z,3.30
2022-12-08T06:42:48.562Z,3.00
2022-12-08T06:43:48.531Z,3.10
2022-12-08T06:44:48.490Z,2.90
2022-12-08T06:45:48.562Z,2.90
2022-12-08T06:46:48.503Z,3.10
2022-12-08T06:47:48.459Z,2.90
2022-12-08T06:48:48.469Z,3.20
2022-12-08T06:49:48.467Z,2.10
2022-12-08T06:50:48.491Z,1.90
2022-12-08T06:51:48.410Z,2.00
2022-12-08T06:52:59.523Z,1.90
2022-12-08T06:53:49.389Z,1.80
2022-12-08T06:54:48.399Z,1.60
2022-12-08T06:55:59.231Z,2.20
2022-12-08T06:56:49.400Z,2.40
2022-12-08T06:57:50.316Z,2.50
2022-12-08T06:58:52.427Z,2.60
2022-12-08T06:59:48.341Z,1.90
2022-12-08T07:00:48.452Z,2.10
2022-12-08T07:01:48.404Z,2.00
2022-12-08T07:02:48.382Z,1.80
2022-12-08T07:03:48.311Z,2.60
2022-12-08T07:04:48.356Z,2.40
2022-12-08T07:05:48.283Z,2.60
2022-12-08T07:06:48.346Z,2.60
2022-12-08T07:07:48.315Z,3.10
2022-12-08T07:08:48.243Z,2.40
2022-12-08T07:09:48.215Z,2.70
2022-12-08T07:10:48.203Z,2.60
2022-12-08T07:11:48.207Z,2.60
2022-12-08T07:12:48.222Z,2.80
2022-12-08T07:13:48.213Z,2.70
2022-12-08T07:14:48.183Z,2.60
2022-12-08T07:15:48.175Z,2.70
2022-12-08T07:16:48.309Z,2.20
2022-12-08T07:17:48.366Z,3.00
2022-12-08T07:18:48.195Z,2.30
2022-12-08T07:19:48.137Z,2.40
2022-12-08T07:20:48.102Z,2.20
2022-12-08T07:21:48.105Z,2.60
2022-12-08T07:22:48.128Z,2.00
2022-12-08T07:23:52.680Z,2.10
2022-12-08T07:24:49.067Z,1.50
2022-12-08T07:25:48.101Z,2.30
2022-12-08T07:26:48.046Z,1.80
2022-12-08T07:27:48.077Z,1.50
2022-12-08T07:28:48.018Z,2.10
2022-12-08T07:29:48.014Z,2.10
2022-12-08T07:30:48.077Z,2.40
2022-12-08T07:31:48.011Z,1.80
2022-12-08T07:32:47.987Z,2.00
2022-12-08T07:33:47.996Z,2.00
2022-12-08T07:34:47.930Z,2.00
2022-12-08T07:35:49.466Z,2.00
2022-12-08T07:36:47.950Z,1.60
2022-12-08T07:37:47.914Z,1.90
2022-12-08T07:38:47.944Z,1.70
2022-12-08T07:39:47.892Z,1.50
2022-12-08T07:40:47.861Z,1.80
2022-12-08T07:41:47.904Z,1.90
2022-12-08T07:42:47.897Z,1.80
2022-12-08T07:43:47.839Z,1.70
2022-12-08T07:44:47.833Z,2.00
2022-12-08T07:45:47.952Z,2.00
2022-12-08T07:46:47.836Z,1.90
2022-12-08T07:47:47.799Z,1.90
2022-12-08T07:48:47.815Z,1.70
2022-12-08T07:49:47.774Z,1.60
2022-12-08T07:50:47.763Z,1.70
2022-12-08T07:51:47.781Z,2.20
2022-12-08T07:52:47.764Z,2.10
2022-12-08T07:53:53.445Z,1.50
2022-12-08T07:54:48.799Z,1.50
2022-12-08T07:55:47.747Z,1.60
2022-12-08T07:56:47.756Z,2.20
2022-12-08T07:57:47.686Z,1.80
2022-12-08T07:58:47.686Z,2.40
2022-12-08T07:59:47.663Z,2.20
2022-12-08T08:00:47.798Z,1.90
2022-12-08T08:01:56.283Z,2.00
2022-12-08T08:02:48.718Z,2.30
2022-12-08T08:03:47.613Z,2.30
2022-12-08T08:04:47.646Z,1.80
2022-12-08T08:05:47.604Z,2.10
2022-12-08T08:06:47.599Z,1.90
2022-12-08T08:07:47.711Z,2.40
2022-12-08T08:08:47.549Z,2.20
2022-12-08T08:09:47.564Z,1.80
2022-12-08T08:10:47.578Z,2.10
2022-12-08T08:12:07.226Z,2.10
2022-12-08T08:12:48.529Z,2.40
2022-12-08T08:13:47.492Z,2.30
2022-12-08T08:14:47.522Z,1.80
2022-12-08T08:15:47.678Z,2.00
2022-12-08T08:16:47.667Z,1.90
2022-12-08T08:17:47.451Z,2.00
2022-12-08T08:18:47.443Z,2.20
2022-12-08T08:19:47.436Z,2.40
2022-12-08T08:20:47.439Z,2.30
2022-12-08T08:21:47.459Z,2.00
2022-12-08T08:22:47.420Z,2.00
2022-12-08T08:23:47.399Z,2.30
2022-12-08T08:24:47.402Z,2.50
2022-12-08T08:25:47.380Z,2.10
2022-12-08T08:26:47.420Z,2.00
2022-12-08T08:27:47.344Z,2.40
2022-12-08T08:28:47.341Z,2.20
2022-12-08T08:29:47.342Z,2.30
2022-12-08T08:30:47.534Z,2.30
2022-12-08T08:31:47.300Z,2.30
2022-12-08T08:32:47.334Z,2.40
2022-12-08T08:33:47.295Z,2.60
2022-12-08T08:34:47.286Z,2.40
2022-12-08T08:35:47.291Z,2.10
2022-12-08T08:36:47.280Z,2.10
2022-12-08T08:37:49.370Z,2.50
2022-12-08T08:38:47.248Z,2.20
2022-12-08T08:39:47.246Z,2.20
2022-12-08T08:40:47.221Z,2.20
2022-12-08T08:41:47.194Z,2.10
2022-12-08T08:42:47.200Z,2.20
2022-12-08T08:43:47.249Z,3.00
2022-12-08T08:44:47.159Z,2.60
2022-12-08T08:45:47.169Z,2.10
2022-12-08T08:46:47.257Z,2.50
2022-12-08T08:47:47.145Z,2.20
2022-12-08T08:48:47.116Z,1.90
2022-12-08T08:49:47.106Z,2.50
2022-12-08T08:50:47.118Z,2.70
2022-12-08T08:51:47.163Z,2.30
2022-12-08T08:52:47.077Z,2.40
2022-12-08T08:53:47.187Z,2.60
2022-12-08T08:54:47.066Z,2.40
2022-12-08T08:55:47.063Z,2.10
2022-12-08T08:56:47.053Z,2.50
2022-12-08T08:57:47.045Z,2.30
2022-12-08T08:58:47.049Z,2.60
2022-12-08T08:59:47.006Z,2.50
2022-12-08T09:00:46.994Z,2.50
2022-12-08T09:01:47.130Z,2.30
2022-12-08T09:02:46.993Z,2.20
2022-12-08T09:03:46.994Z,2.30
2022-12-08T09:04:47.079Z,2.70
2022-12-08T09:05:47.046Z,2.40
2022-12-08T09:06:46.925Z,2.30
2022-12-08T09:07:47.010Z,2.30
2022-12-08T09:08:46.943Z,2.20
2022-12-08T09:09:46.990Z,2.80
2022-12-08T09:10:46.873Z,2.30
2022-12-08T09:11:46.860Z,2.40
2022-12-08T09:12:46.883Z,2.50
2022-12-08T09:13:46.839Z,2.80
2022-12-08T09:14:46.876Z,2.40
2022-12-08T09:15:46.853Z,2.20
2022-12-08T09:16:46.854Z,2.60
2022-12-08T09:17:46.817Z,2.60
2022-12-08T09:18:46.821Z,2.50
2022-12-08T09:19:46.781Z,2.60
2022-12-08T09:20:46.777Z,2.50
2022-12-08T09:21:46.778Z,2.70
2022-12-08T09:22:46.798Z,2.50
2022-12-08T09:23:46.816Z,2.90
2022-12-08T09:24:46.711Z,2.40
2022-12-08T09:25:46.693Z,2.50
2022-12-08T09:26:46.710Z,2.50
2022-12-08T09:27:46.726Z,2.60
2022-12-08T09:28:46.900Z,2.70
2022-12-08T09:29:46.650Z,2.60
2022-12-08T09:30:46.697Z,2.80
2022-12-08T09:31:46.791Z,2.40
2022-12-08T09:32:46.651Z,2.50
2022-12-08T09:33:46.613Z,2.20
2022-12-08T09:34:51.904Z,2.20
2022-12-08T09:35:47.597Z,2.60
2022-12-08T09:36:46.630Z,2.60
2022-12-08T09:37:46.575Z,2.70
2022-12-08T09:38:46.604Z,2.30
2022-12-08T09:39:46.625Z,2.60
2022-12-08T09:40:46.634Z,2.60
2022-12-08T09:41:48.187Z,2.90
2022-12-08T09:42:46.659Z,2.80
2022-12-08T09:43:46.502Z,2.40
2022-12-08T09:44:46.503Z,2.60
2022-12-08T09:45:46.469Z,2.70
2022-12-08T09:46:46.600Z,2.30
2022-12-08T09:47:46.465Z,2.60
2022-12-08T09:48:46.482Z,2.50
2022-12-08T09:49:46.448Z,3.20
2022-12-08T09:50:46.456Z,2.60
2022-12-08T09:51:46.451Z,2.80
2022-12-08T09:52:46.457Z,2.70
2022-12-08T09:53:46.398Z,2.70
2022-12-08T09:54:46.446Z,2.50
2022-12-08T09:55:46.535Z,2.60
2022-12-08T09:56:46.390Z,2.10
2022-12-08T09:57:49.382Z,2.80
2022-12-08T09:58:47.359Z,2.50
2022-12-08T09:59:46.396Z,2.80
2022-12-08T10:00:46.335Z,2.90
2022-12-08T10:01:46.394Z,2.90
2022-12-08T10:02:46.341Z,3.00
2022-12-08T10:03:46.284Z,2.30
2022-12-08T10:04:46.333Z,3.00
2022-12-08T10:05:46.262Z,3.20
2022-12-08T10:06:46.294Z,2.50
2022-12-08T10:07:46.358Z,2.90
2022-12-08T10:08:46.226Z,2.70
2022-12-08T10:09:46.226Z,2.80
2022-12-08T10:10:46.227Z,2.90
2022-12-08T10:11:46.179Z,3.00
2022-12-08T10:12:46.179Z,3.30
2022-12-08T10:13:46.307Z,2.60
2022-12-08T10:14:46.173Z,3.00
2022-12-08T10:15:46.257Z,3.20
2022-12-08T10:16:46.699Z,2.90
2022-12-08T10:17:46.133Z,3.00
2022-12-08T10:18:46.141Z,2.90
2022-12-08T10:19:46.108Z,2.30
2022-12-08T10:20:46.123Z,2.60
2022-12-08T10:21:46.113Z,2.90
2022-12-08T10:22:46.076Z,2.80
2022-12-08T10:23:46.085Z,2.90
2022-12-08T10:24:47.023Z,2.80
2022-12-08T10:25:46.089Z,2.60
2022-12-08T10:26:46.034Z,2.70
2022-12-08T10:27:46.082Z,2.90
2022-12-08T10:28:49.044Z,2.70
2022-12-08T10:29:46.014Z,2.30
2022-12-08T10:30:45.989Z,2.80
2022-12-08T10:31:46.072Z,3.30
2022-12-08T10:32:45.958Z,2.60
2022-12-08T10:33:45.963Z,2.60
2022-12-08T10:34:46.003Z,3.00
2022-12-08T10:35:45.934Z,2.60
2022-12-08T10:36:45.928Z,2.30
2022-12-08T10:37:45.905Z,2.70
2022-12-08T10:38:45.910Z,3.00
2022-12-08T10:39:45.927Z,2.50
2022-12-08T10:40:45.994Z,2.80
2022-12-08T10:41:45.872Z,2.80
2022-12-08T10:42:45.843Z,2.40
2022-12-08T10:43:45.850Z,2.30
2022-12-08T10:44:45.886Z,2.90
2022-12-08T10:45:45.819Z,2.50
2022-12-08T10:46:45.915Z,2.60
2022-12-08T10:47:47.863Z,2.70
2022-12-08T10:48:46.802Z,2.40
2022-12-08T10:49:45.776Z,2.70
2022-12-08T10:50:45.802Z,3.20
2022-12-08T10:51:45.742Z,2.70
2022-12-08T10:52:45.749Z,2.90
2022-12-08T10:53:45.750Z,2.80
2022-12-08T10:54:45.721Z,3.20
2022-12-08T10:55:45.711Z,2.60
2022-12-08T10:56:45.725Z,2.70
2022-12-08T10:57:45.694Z,2.60
2022-12-08T10:58:45.696Z,2.60
2022-12-08T10:59:45.657Z,2.50
2022-12-08T11:00:46.374Z,2.60
2022-12-08T11:01:45.868Z,2.30
2022-12-08T11:02:45.818Z,2.00
2022-12-08T11:03:45.621Z,2.60
2022-12-08T11:04:45.626Z,2.50
2022-12-08T11:05:45.599Z,2.20
2022-12-08T11:06:45.618Z,2.30
2022-12-08T11:07:45.685Z,2.30
2022-12-08T11:08:45.598Z,2.70
2022-12-08T11:09:45.598Z,2.90
2022-12-08T11:10:45.568Z,2.30
2022-12-08T11:11:45.527Z,2.50
2022-12-08T11:12:45.575Z,2.40
2022-12-08T11:13:45.497Z,2.40
2022-12-08T11:14:45.515Z,2.60
2022-12-08T11:15:45.514Z,2.50
2022-12-08T11:16:45.621Z,2.40
2022-12-08T11:17:45.488Z,2.50
2022-12-08T11:18:45.448Z,2.80
2022-12-08T11:19:45.439Z,2.80
2022-12-08T11:20:45.445Z,2.40
2022-12-08T11:21:45.414Z,2.30
2022-12-08T11:22:45.605Z,2.70
2022-12-08T11:23:45.383Z,2.90
2022-12-08T11:24:45.391Z,2.50
2022-12-08T11:25:45.401Z,2.60
2022-12-08T11:26:45.391Z,2.40
2022-12-08T11:27:45.360Z,2.70
2022-12-08T11:28:45.362Z,2.90
2022-12-08T11:29:45.326Z,2.80
2022-12-08T11:30:45.341Z,2.90
2022-12-08T11:31:45.354Z,2.50
2022-12-08T11:32:45.295Z,2.90
2022-12-08T11:33:45.323Z,2.40
2022-12-08T11:34:45.281Z,2.60
2022-12-08T11:35:45.282Z,2.80
2022-12-08T11:36:45.247Z,2.60
2022-12-08T11:37:45.257Z,2.70
2022-12-08T11:38:45.983Z,2.00
2022-12-08T11:39:45.224Z,3.40
2022-12-08T11:40:45.213Z,2.20
2022-12-08T11:41:45.207Z,1.80
2022-12-08T11:42:45.183Z,2.50
2022-12-08T11:43:45.200Z,2.40
2022-12-08T11:44:45.180Z,2.40
2022-12-08T11:45:45.222Z,2.10
2022-12-08T11:46:45.151Z,2.20
2022-12-08T11:47:45.139Z,2.70
2022-12-08T11:48:45.115Z,2.10
2022-12-08T11:50:45.111Z,2.20
2022-12-08T11:51:45.089Z,2.30
2022-12-08T11:52:45.097Z,2.30
2022-12-08T11:53:45.092Z,2.10
2022-12-08T11:54:45.075Z,2.40
2022-12-08T11:55:49.760Z,1.90
2022-12-08T11:56:46.038Z,2.00
2022-12-08T11:57:45.064Z,2.00
2022-12-08T11:58:45.030Z,1.50
2022-12-08T11:59:44.991Z,1.80
2022-12-08T12:00:44.979Z,2.00
2022-12-08T12:01:44.993Z,2.10
2022-12-08T12:02:45.088Z,1.90
2022-12-08T12:03:45.064Z,1.60
2022-12-08T12:04:44.958Z,1.90
2022-12-08T12:06:09.231Z,1.90
2022-12-08T12:06:54.642Z,1.50
2022-12-08T12:07:45.974Z,1.70
2022-12-08T12:08:44.909Z,1.50
2022-12-08T12:09:44.961Z,1.90
2022-12-08T12:10:44.883Z,1.90
2022-12-08T12:11:44.906Z,1.70
2022-12-08T12:12:44.874Z,1.90
2022-12-08T12:13:44.850Z,1.80
2022-12-08T12:14:44.860Z,1.80
2022-12-08T12:15:44.828Z,2.40
2022-12-08T12:16:44.907Z,1.90
2022-12-08T12:17:44.825Z,1.60
2022-12-08T12:18:44.806Z,1.90
2022-12-08T12:19:44.806Z,1.80
2022-12-08T12:20:44.781Z,1.80
2022-12-08T12:21:44.748Z,1.40
2022-12-08T12:22:44.768Z,2.10
2022-12-08T12:23:44.753Z,1.60
2022-12-08T12:24:44.737Z,1.40
2022-12-08T12:25:44.721Z,1.40
2022-12-08T12:26:44.721Z,1.70
2022-12-08T12:27:44.697Z,1.40
2022-12-08T12:28:44.672Z,1.50
2022-12-08T12:29:44.681Z,1.40
2022-12-08T12:30:44.701Z,1.60
2022-12-08T12:31:44.660Z,1.50
2022-12-08T12:32:44.692Z,1.60
2022-12-08T12:33:44.628Z,1.60
2022-12-08T12:34:44.639Z,1.50
2022-12-08T12:35:44.604Z,1.30
2022-12-08T12:36:44.613Z,1.60
2022-12-08T12:37:44.568Z,1.30
2022-12-08T12:38:44.609Z,1.50
2022-12-08T12:39:44.549Z,1.30
2022-12-08T12:40:44.543Z,1.30
2022-12-08T12:41:44.543Z,1.50
2022-12-08T12:42:44.580Z,1.40
2022-12-08T12:43:44.549Z,1.60
2022-12-08T12:44:44.521Z,2.10
2022-12-08T12:45:44.580Z,1.60
2022-12-08T12:46:44.490Z,1.40
2022-12-08T12:47:44.461Z,1.70
2022-12-08T12:48:44.457Z,1.60
2022-12-08T12:49:44.525Z,1.40
2022-12-08T12:50:44.457Z,1.60
2022-12-08T12:51:44.426Z,1.50
2022-12-08T12:52:44.417Z,1.60
2022-12-08T12:53:44.400Z,1.60
2022-12-08T12:54:44.398Z,1.40
2022-12-08T12:55:44.504Z,1.80
2022-12-08T12:56:44.372Z,1.40
2022-12-08T12:57:44.365Z,1.60
2022-12-08T12:58:44.362Z,1.70
2022-12-08T12:59:44.337Z,1.80
2022-12-08T13:00:44.341Z,2.20
2022-12-08T13:01:44.431Z,1.70
2022-12-08T13:02:44.508Z,1.60
2022-12-08T13:03:44.295Z,1.50
2022-12-08T13:04:44.305Z,1.60
2022-12-08T13:05:44.282Z,1.40
2022-12-08T13:06:44.262Z,1.40
2022-12-08T13:07:44.338Z,1.70
2022-12-08T13:08:44.234Z,1.80
2022-12-08T13:09:44.223Z,1.70
2022-12-08T13:10:44.222Z,1.80
2022-12-08T13:11:47.792Z,1.70
2022-12-08T13:12:44.273Z,1.40
2022-12-08T13:13:44.225Z,1.80
2022-12-08T13:14:44.211Z,1.60
2022-12-08T13:15:44.159Z,1.70
2022-12-08T13:16:44.181Z,1.40
2022-12-08T13:17:44.208Z,1.60
2022-12-08T13:18:44.993Z,1.50
2022-12-08T13:19:48.832Z,1.60